Pagrindinis puslapis
METAR-TAF:

METAR-TAF

Oro uostai :

Tarptautinis Vilniaus oro uostas

Vilnius, Lietuva

platuma: 54-38N, ilguma: 025-06E, Aukštis: 162 m

Dabartinis oras

Ataskaita buvo paskelbta 24 minutes, ne 00:20 UTC
Vėjas 2 kt iš Pietų
Temperatūra 13°C
Drėgmė 88%
Slėgis 1018 hPa
Matomumas 10 km arba daugiau
nėra debesų žemiau 1500 m ir nėra kamuolinių lietaus debesų

METAR: EYVI 200020Z 19002KT CAVOK 13/11 Q1018 NOSIG

Laikas: 03:44 (00:44 UTC)

Prognozė

Ataskaita buvo paskelbta 1 valandą ir 41 minutes, ne 23:03 UTC
Prognozė galioja nuo 20 metu 00 UTC su 20 metu 24 UTC
Vėjas 6 kt iš Pietų/Pietvakarių
Matomumas: 4000 m
Išsisklaidę debesys ne aukštis 500 ft
rūkana
Laikinai
nuo 20 metu 00 UTC su 20 metu 06 UTC
Matomumas: 0500 m
ne aukštis 200 ft
rūkas
Tapsmas
nuo 20 metu 06 UTC su 20 metu 07 UTC
Matomumas: 9000 m
Išsisklaidę debesys ne aukštis 3500 ft

TAF: EYVI 192303Z 2000/2024 20006KT 4000 BR SCT005 TEMPO 2000/2006 0500 FG VV002 BECMG 2006/2007 9000 SCT035

Orai ataskaitas ir orų prognozės (METAR, TAF).

turimą stotys yra geltonos ir raudonos taškus žemėlapyje.

Perkelti pele per norėdami pamatyti stoties vardą.

Tada spustelėkite, norėdami matyti oro stebėjimo ir prognozės.

Norėdami pakeisti žemėlapį: spustelėkite ant žalios mygtukų su juodo kryžiaus žemyn,; žalią mygtuką su brūkšneliu, jei norite nutolinti; arba žalių rodyklių gretimoms žemėlapius.


METAR-TAF: